sensor_id;sensor_type;location;lat;lon;timestamp;P1;durP1;ratioP1;P2;durP2;ratioP2
14080;SDS011;7116;52.152;5.392;2023-05-10T00:00:46;17.00;;;11.18;;
14080;SDS011;7116;52.152;5.392;2023-05-10T00:03:29;17.25;;;11.20;;
14080;SDS011;7116;52.152;5.392;2023-05-10T00:06:07;18.30;;;11.93;;
14080;SDS011;7116;52.152;5.392;2023-05-10T00:08:40;17.73;;;11.10;;
14080;SDS011;7116;52.152;5.392;2023-05-10T00:17:20;15.98;;;10.85;;
14080;SDS011;7116;52.152;5.392;2023-05-10T00:20:11;20.13;;;12.00;;
14080;SDS011;7116;52.152;5.392;2023-05-10T00:22:38;18.90;;;12.68;;
14080;SDS011;7116;52.152;5.392;2023-05-10T00:28:11;22.80;;;13.55;;
14080;SDS011;7116;52.152;5.392;2023-05-10T00:30:52;20.42;;;14.20;;
14080;SDS011;7116;52.152;5.392;2023-05-10T00:33:37;22.80;;;15.07;;
14080;SDS011;7116;52.152;5.392;2023-05-10T00:36:02;31.88;;;17.30;;
14080;SDS011;7116;52.152;5.392;2023-05-10T00:41:38;30.92;;;18.48;;
14080;SDS011;7116;52.152;5.392;2023-05-10T00:44:06;27.02;;;18.30;;
14080;SDS011;7116;52.152;5.392;2023-05-10T00:47:02;27.98;;;17.27;;
14080;SDS011;7116;52.152;5.392;2023-05-10T00:49:55;29.27;;;18.77;;
14080;SDS011;7116;52.152;5.392;2023-05-10T00:52:26;28.83;;;17.20;;
14080;SDS011;7116;52.152;5.392;2023-05-10T00:54:54;27.75;;;18.20;;
14080;SDS011;7116;52.152;5.392;2023-05-10T01:00:18;34.15;;;20.17;;
14080;SDS011;7116;52.152;5.392;2023-05-10T01:02:44;32.43;;;19.30;;
14080;SDS011;7116;52.152;5.392;2023-05-10T01:05:17;34.30;;;20.80;;
14080;SDS011;7116;52.152;5.392;2023-05-10T01:07:45;36.67;;;21.37;;
14080;SDS011;7116;52.152;5.392;2023-05-10T01:10:13;35.10;;;21.30;;
14080;SDS011;7116;52.152;5.392;2023-05-10T01:13:06;35.10;;;20.80;;
14080;SDS011;7116;52.152;5.392;2023-05-10T01:44:52;32.30;;;18.20;;
14080;SDS011;7116;52.152;5.392;2023-05-10T01:47:44;33.92;;;19.27;;
14080;SDS011;7116;52.152;5.392;2023-05-10T01:50:41;35.28;;;19.08;;
14080;SDS011;7116;52.152;5.392;2023-05-10T01:53:37;36.08;;;19.20;;
14080;SDS011;7116;52.152;5.392;2023-05-10T01:56:40;36.90;;;21.27;;
14080;SDS011;7116;52.152;5.392;2023-05-10T02:02:07;35.63;;;18.67;;
14080;SDS011;7116;52.152;5.392;2023-05-10T02:04:52;36.55;;;19.83;;
14080;SDS011;7116;52.152;5.392;2023-05-10T02:10:13;35.08;;;20.27;;
14080;SDS011;7116;52.152;5.392;2023-05-10T02:12:54;36.63;;;19.23;;
14080;SDS011;7116;52.152;5.392;2023-05-10T02:15:34;38.95;;;20.80;;
14080;SDS011;7116;52.152;5.392;2023-05-10T02:18:15;35.28;;;20.75;;
14080;SDS011;7116;52.152;5.392;2023-05-10T02:20:46;35.13;;;19.25;;
14080;SDS011;7116;52.152;5.392;2023-05-10T02:23:23;39.67;;;21.25;;
14080;SDS011;7116;52.152;5.392;2023-05-10T02:29:06;37.35;;;19.40;;
14080;SDS011;7116;52.152;5.392;2023-05-10T02:31:47;41.60;;;20.92;;
14080;SDS011;7116;52.152;5.392;2023-05-10T02:34:12;37.22;;;20.75;;
14080;SDS011;7116;52.152;5.392;2023-05-10T02:36:43;39.53;;;21.48;;
14080;SDS011;7116;52.152;5.392;2023-05-10T02:39:31;38.10;;;19.30;;
14080;SDS011;7116;52.152;5.392;2023-05-10T02:45:00;36.72;;;20.40;;
14080;SDS011;7116;52.152;5.392;2023-05-10T02:47:46;36.90;;;20.67;;
14080;SDS011;7116;52.152;5.392;2023-05-10T02:50:21;37.95;;;20.92;;
14080;SDS011;7116;52.152;5.392;2023-05-10T02:52:47;41.93;;;21.47;;
14080;SDS011;7116;52.152;5.392;2023-05-10T02:55:26;42.05;;;21.75;;
14080;SDS011;7116;52.152;5.392;2023-05-10T02:58:05;38.95;;;21.15;;
14080;SDS011;7116;52.152;5.392;2023-05-10T03:03:42;40.85;;;20.42;;
14080;SDS011;7116;52.152;5.392;2023-05-10T03:06:30;37.40;;;21.57;;
14080;SDS011;7116;52.152;5.392;2023-05-10T03:14:42;39.85;;;21.48;;
14080;SDS011;7116;52.152;5.392;2023-05-10T03:19:57;43.17;;;20.70;;
14080;SDS011;7116;52.152;5.392;2023-05-10T03:25:14;43.40;;;20.83;;
14080;SDS011;7116;52.152;5.392;2023-05-10T03:30:41;45.72;;;21.50;;
14080;SDS011;7116;52.152;5.392;2023-05-10T03:33:09;45.93;;;20.87;;
14080;SDS011;7116;52.152;5.392;2023-05-10T03:38:22;45.57;;;22.13;;
14080;SDS011;7116;52.152;5.392;2023-05-10T03:41:08;46.90;;;22.08;;
14080;SDS011;7116;52.152;5.392;2023-05-10T03:43:36;46.30;;;21.88;;
14080;SDS011;7116;52.152;5.392;2023-05-10T03:46:39;46.20;;;22.45;;
14080;SDS011;7116;52.152;5.392;2023-05-10T03:52:32;48.50;;;21.83;;
14080;SDS011;7116;52.152;5.392;2023-05-10T03:55:27;48.80;;;23.55;;
14080;SDS011;7116;52.152;5.392;2023-05-10T03:58:05;46.75;;;22.73;;
14080;SDS011;7116;52.152;5.392;2023-05-10T04:00:35;49.28;;;22.52;;
14080;SDS011;7116;52.152;5.392;2023-05-10T04:03:00;53.47;;;25.98;;
14080;SDS011;7116;52.152;5.392;2023-05-10T04:05:36;48.57;;;23.00;;
14080;SDS011;7116;52.152;5.392;2023-05-10T04:08:11;51.88;;;24.13;;
14080;SDS011;7116;52.152;5.392;2023-05-10T04:10:39;47.10;;;22.25;;
14080;SDS011;7116;52.152;5.392;2023-05-10T04:13:26;50.00;;;22.10;;
14080;SDS011;7116;52.152;5.392;2023-05-10T04:19:00;47.27;;;21.83;;
14080;SDS011;7116;52.152;5.392;2023-05-10T04:24:52;49.35;;;23.48;;
14080;SDS011;7116;52.152;5.392;2023-05-10T04:30:35;52.60;;;24.67;;
14080;SDS011;7116;52.152;5.392;2023-05-10T04:33:03;51.93;;;23.53;;
14080;SDS011;7116;52.152;5.392;2023-05-10T04:35:28;54.80;;;23.77;;
14080;SDS011;7116;52.152;5.392;2023-05-10T04:38:03;48.13;;;22.13;;
14080;SDS011;7116;52.152;5.392;2023-05-10T04:40:40;59.30;;;24.52;;
14080;SDS011;7116;52.152;5.392;2023-05-10T04:46:21;47.80;;;22.17;;
14080;SDS011;7116;52.152;5.392;2023-05-10T04:49:24;51.92;;;23.38;;
14080;SDS011;7116;52.152;5.392;2023-05-10T04:52:07;46.73;;;21.83;;
14080;SDS011;7116;52.152;5.392;2023-05-10T04:54:36;47.08;;;21.67;;
14080;SDS011;7116;52.152;5.392;2023-05-10T04:57:11;46.13;;;21.25;;
14080;SDS011;7116;52.152;5.392;2023-05-10T04:59:49;53.65;;;23.20;;
14080;SDS011;7116;52.152;5.392;2023-05-10T05:02:15;50.10;;;22.73;;
14080;SDS011;7116;52.152;5.392;2023-05-10T05:04:40;49.10;;;22.77;;
14080;SDS011;7116;52.152;5.392;2023-05-10T05:07:13;47.70;;;23.67;;
14080;SDS011;7116;52.152;5.392;2023-05-10T05:10:02;43.90;;;21.25;;
14080;SDS011;7116;52.152;5.392;2023-05-10T05:12:28;47.22;;;23.13;;
14080;SDS011;7116;52.152;5.392;2023-05-10T05:14:53;46.87;;;24.17;;
14080;SDS011;7116;52.152;5.392;2023-05-10T05:17:18;45.57;;;22.73;;
14080;SDS011;7116;52.152;5.392;2023-05-10T05:19:43;46.13;;;22.07;;
14080;SDS011;7116;52.152;5.392;2023-05-10T05:25:16;42.25;;;21.10;;
14080;SDS011;7116;52.152;5.392;2023-05-10T05:28:07;47.08;;;21.63;;
14080;SDS011;7116;52.152;5.392;2023-05-10T05:30:48;41.90;;;20.73;;
14080;SDS011;7116;52.152;5.392;2023-05-10T05:33:37;51.30;;;22.63;;
14080;SDS011;7116;52.152;5.392;2023-05-10T05:36:16;49.30;;;22.35;;
14080;SDS011;7116;52.152;5.392;2023-05-10T05:38:50;50.20;;;23.00;;
14080;SDS011;7116;52.152;5.392;2023-05-10T05:41:53;48.17;;;22.42;;
14080;SDS011;7116;52.152;5.392;2023-05-10T05:44:26;47.03;;;22.57;;
14080;SDS011;7116;52.152;5.392;2023-05-10T05:47:16;54.10;;;24.48;;
14080;SDS011;7116;52.152;5.392;2023-05-10T05:50:01;52.40;;;23.67;;
14080;SDS011;7116;52.152;5.392;2023-05-10T06:04:54;40.63;;;21.35;;
14080;SDS011;7116;52.152;5.392;2023-05-10T06:07:25;40.67;;;21.00;;
14080;SDS011;7116;52.152;5.392;2023-05-10T06:18:56;38.78;;;19.65;;
14080;SDS011;7116;52.152;5.392;2023-05-10T06:21:24;33.92;;;18.33;;
14080;SDS011;7116;52.152;5.392;2023-05-10T06:23:52;34.30;;;18.98;;
14080;SDS011;7116;52.152;5.392;2023-05-10T06:26:39;36.07;;;16.97;;
14080;SDS011;7116;52.152;5.392;2023-05-10T06:29:15;29.83;;;15.38;;
14080;SDS011;7116;52.152;5.392;2023-05-10T06:31:43;35.03;;;17.63;;
14080;SDS011;7116;52.152;5.392;2023-05-10T06:34:28;28.80;;;16.48;;
14080;SDS011;7116;52.152;5.392;2023-05-10T06:36:56;28.15;;;14.15;;
14080;SDS011;7116;52.152;5.392;2023-05-10T06:48:46;20.40;;;11.40;;
14080;SDS011;7116;52.152;5.392;2023-05-10T06:51:22;23.13;;;12.93;;
14080;SDS011;7116;52.152;5.392;2023-05-10T06:53:53;20.43;;;11.27;;
14080;SDS011;7116;52.152;5.392;2023-05-10T06:56:38;19.13;;;10.80;;
14080;SDS011;7116;52.152;5.392;2023-05-10T06:59:24;21.10;;;11.48;;
14080;SDS011;7116;52.152;5.392;2023-05-10T07:01:49;19.47;;;10.57;;
14080;SDS011;7116;52.152;5.392;2023-05-10T07:04:14;17.43;;;9.73;;
14080;SDS011;7116;52.152;5.392;2023-05-10T07:06:42;16.00;;;9.90;;
14080;SDS011;7116;52.152;5.392;2023-05-10T07:09:07;15.20;;;10.13;;
14080;SDS011;7116;52.152;5.392;2023-05-10T07:11:33;16.80;;;9.30;;
14080;SDS011;7116;52.152;5.392;2023-05-10T07:13:58;16.43;;;10.60;;
14080;SDS011;7116;52.152;5.392;2023-05-10T07:16:23;14.00;;;9.43;;
14080;SDS011;7116;52.152;5.392;2023-05-10T07:18:48;16.13;;;9.43;;
14080;SDS011;7116;52.152;5.392;2023-05-10T07:21:15;14.05;;;8.20;;
14080;SDS011;7116;52.152;5.392;2023-05-10T07:23:40;14.40;;;9.33;;
14080;SDS011;7116;52.152;5.392;2023-05-10T07:26:05;15.67;;;9.07;;
14080;SDS011;7116;52.152;5.392;2023-05-10T07:28:30;15.33;;;9.17;;
14080;SDS011;7116;52.152;5.392;2023-05-10T07:30:56;13.33;;;8.53;;
14080;SDS011;7116;52.152;5.392;2023-05-10T07:33:21;16.47;;;8.77;;
14080;SDS011;7116;52.152;5.392;2023-05-10T07:35:54;16.67;;;8.63;;
14080;SDS011;7116;52.152;5.392;2023-05-10T07:38:44;17.88;;;10.00;;
14080;SDS011;7116;52.152;5.392;2023-05-10T07:41:24;13.27;;;8.90;;
14080;SDS011;7116;52.152;5.392;2023-05-10T07:44:00;18.35;;;9.85;;
14080;SDS011;7116;52.152;5.392;2023-05-10T07:46:46;14.40;;;9.68;;
14080;SDS011;7116;52.152;5.392;2023-05-10T07:52:31;16.85;;;9.45;;
14080;SDS011;7116;52.152;5.392;2023-05-10T07:55:18;15.13;;;8.37;;
14080;SDS011;7116;52.152;5.392;2023-05-10T07:58:03;14.00;;;8.13;;
14080;SDS011;7116;52.152;5.392;2023-05-10T08:00:31;13.25;;;8.32;;
14080;SDS011;7116;52.152;5.392;2023-05-10T08:03:04;15.07;;;8.60;;
14080;SDS011;7116;52.152;5.392;2023-05-10T08:05:31;14.63;;;8.70;;
14080;SDS011;7116;52.152;5.392;2023-05-10T08:13:59;13.30;;;8.17;;
14080;SDS011;7116;52.152;5.392;2023-05-10T08:16:27;15.55;;;8.43;;
14080;SDS011;7116;52.152;5.392;2023-05-10T08:19:13;14.43;;;8.68;;
14080;SDS011;7116;52.152;5.392;2023-05-10T08:21:55;13.70;;;8.95;;
14080;SDS011;7116;52.152;5.392;2023-05-10T08:24:24;15.75;;;9.23;;
14080;SDS011;7116;52.152;5.392;2023-05-10T08:26:49;14.17;;;9.67;;
14080;SDS011;7116;52.152;5.392;2023-05-10T08:32:17;20.38;;;9.73;;
14080;SDS011;7116;52.152;5.392;2023-05-10T08:38:23;16.40;;;9.93;;
14080;SDS011;7116;52.152;5.392;2023-05-10T08:40:58;16.38;;;9.73;;
14080;SDS011;7116;52.152;5.392;2023-05-10T08:43:51;15.97;;;10.60;;
14080;SDS011;7116;52.152;5.392;2023-05-10T08:46:37;13.10;;;8.93;;
14080;SDS011;7116;52.152;5.392;2023-05-10T08:52:30;13.13;;;9.32;;
14080;SDS011;7116;52.152;5.392;2023-05-10T08:54:57;10.63;;;8.20;;
14080;SDS011;7116;52.152;5.392;2023-05-10T08:57:23;13.63;;;9.23;;
14080;SDS011;7116;52.152;5.392;2023-05-10T08:59:57;13.93;;;9.67;;
14080;SDS011;7116;52.152;5.392;2023-05-10T09:02:34;15.32;;;8.82;;
14080;SDS011;7116;52.152;5.392;2023-05-10T09:05:13;13.73;;;8.43;;
14080;SDS011;7116;52.152;5.392;2023-05-10T09:07:40;12.57;;;8.55;;
14080;SDS011;7116;52.152;5.392;2023-05-10T09:10:11;13.67;;;8.53;;
14080;SDS011;7116;52.152;5.392;2023-05-10T09:13:02;13.82;;;7.88;;
14080;SDS011;7116;52.152;5.392;2023-05-10T09:15:55;11.50;;;7.65;;
14080;SDS011;7116;52.152;5.392;2023-05-10T09:18:43;9.75;;;5.70;;
14080;SDS011;7116;52.152;5.392;2023-05-10T09:27:28;6.47;;;4.43;;
14080;SDS011;7116;52.152;5.392;2023-05-10T09:30:06;6.57;;;4.10;;
14080;SDS011;7116;52.152;5.392;2023-05-10T09:35:46;5.90;;;4.30;;
14080;SDS011;7116;52.152;5.392;2023-05-10T09:41:14;7.72;;;3.70;;
14080;SDS011;7116;52.152;5.392;2023-05-10T09:44:02;5.60;;;3.45;;
14080;SDS011;7116;52.152;5.392;2023-05-10T09:49:51;5.43;;;3.97;;
14080;SDS011;7116;52.152;5.392;2023-05-10T09:55:16;6.80;;;4.45;;
14080;SDS011;7116;52.152;5.392;2023-05-10T09:57:59;6.80;;;5.20;;
14080;SDS011;7116;52.152;5.392;2023-05-10T10:00:52;8.80;;;5.22;;
14080;SDS011;7116;52.152;5.392;2023-05-10T10:06:34;8.73;;;6.07;;
14080;SDS011;7116;52.152;5.392;2023-05-10T10:09:09;8.52;;;5.57;;
14080;SDS011;7116;52.152;5.392;2023-05-10T10:14:25;8.52;;;6.30;;
14080;SDS011;7116;52.152;5.392;2023-05-10T10:16:56;10.45;;;5.95;;
14080;SDS011;7116;52.152;5.392;2023-05-10T10:25:32;10.13;;;5.78;;
14080;SDS011;7116;52.152;5.392;2023-05-10T10:30:56;7.22;;;5.53;;
14080;SDS011;7116;52.152;5.392;2023-05-10T10:36:47;8.77;;;5.47;;
14080;SDS011;7116;52.152;5.392;2023-05-10T10:39:20;7.30;;;5.78;;
14080;SDS011;7116;52.152;5.392;2023-05-10T10:42:08;8.75;;;5.20;;
14080;SDS011;7116;52.152;5.392;2023-05-10T10:44:43;8.65;;;6.00;;
14080;SDS011;7116;52.152;5.392;2023-05-10T10:50:46;7.43;;;5.15;;
14080;SDS011;7116;52.152;5.392;2023-05-10T10:59:28;7.25;;;5.97;;
14080;SDS011;7116;52.152;5.392;2023-05-10T11:01:56;12.50;;;5.90;;
14080;SDS011;7116;52.152;5.392;2023-05-10T11:04:41;8.10;;;5.47;;
14080;SDS011;7116;52.152;5.392;2023-05-10T11:10:09;7.65;;;5.30;;
14080;SDS011;7116;52.152;5.392;2023-05-10T11:12:52;6.65;;;4.80;;
14080;SDS011;7116;52.152;5.392;2023-05-10T11:18:29;8.30;;;4.77;;
14080;SDS011;7116;52.152;5.392;2023-05-10T11:21:12;6.55;;;4.80;;
14080;SDS011;7116;52.152;5.392;2023-05-10T11:23:53;9.32;;;5.72;;
14080;SDS011;7116;52.152;5.392;2023-05-10T11:26:21;8.95;;;5.82;;
14080;SDS011;7116;52.152;5.392;2023-05-10T11:28:50;8.95;;;6.07;;
14080;SDS011;7116;52.152;5.392;2023-05-10T11:31:19;8.53;;;5.20;;
14080;SDS011;7116;52.152;5.392;2023-05-10T11:34:00;10.93;;;5.70;;
14080;SDS011;7116;52.152;5.392;2023-05-10T11:36:32;7.05;;;5.28;;
14080;SDS011;7116;52.152;5.392;2023-05-10T11:38:57;8.30;;;4.60;;
14080;SDS011;7116;52.152;5.392;2023-05-10T11:41:23;7.68;;;4.95;;
14080;SDS011;7116;52.152;5.392;2023-05-10T11:43:51;8.40;;;4.90;;
14080;SDS011;7116;52.152;5.392;2023-05-10T11:46:21;7.03;;;4.70;;
14080;SDS011;7116;52.152;5.392;2023-05-10T11:48:49;6.75;;;4.43;;
14080;SDS011;7116;52.152;5.392;2023-05-10T11:51:20;6.30;;;3.90;;
14080;SDS011;7116;52.152;5.392;2023-05-10T11:53:48;5.68;;;4.40;;
14080;SDS011;7116;52.152;5.392;2023-05-10T11:56:17;6.43;;;3.90;;
14080;SDS011;7116;52.152;5.392;2023-05-10T11:58:47;6.63;;;3.83;;
14080;SDS011;7116;52.152;5.392;2023-05-10T12:01:20;6.38;;;3.92;;
14080;SDS011;7116;52.152;5.392;2023-05-10T12:03:48;6.50;;;3.97;;
14080;SDS011;7116;52.152;5.392;2023-05-10T12:06:16;5.93;;;4.32;;
14080;SDS011;7116;52.152;5.392;2023-05-10T12:08:47;6.00;;;4.53;;
14080;SDS011;7116;52.152;5.392;2023-05-10T12:11:27;9.02;;;3.70;;
14080;SDS011;7116;52.152;5.392;2023-05-10T12:14:15;9.30;;;4.18;;
14080;SDS011;7116;52.152;5.392;2023-05-10T12:16:58;6.32;;;4.22;;
14080;SDS011;7116;52.152;5.392;2023-05-10T12:19:27;6.85;;;4.53;;
14080;SDS011;7116;52.152;5.392;2023-05-10T12:22:22;6.10;;;4.07;;
14080;SDS011;7116;52.152;5.392;2023-05-10T12:28:11;5.75;;;4.25;;
14080;SDS011;7116;52.152;5.392;2023-05-10T12:30:39;6.45;;;4.50;;
14080;SDS011;7116;52.152;5.392;2023-05-10T12:33:11;6.53;;;3.87;;
14080;SDS011;7116;52.152;5.392;2023-05-10T12:38:37;4.87;;;3.83;;
14080;SDS011;7116;52.152;5.392;2023-05-10T12:41:10;4.82;;;3.70;;
14080;SDS011;7116;52.152;5.392;2023-05-10T12:43:54;5.93;;;3.72;;
14080;SDS011;7116;52.152;5.392;2023-05-10T12:46:32;7.22;;;3.60;;
14080;SDS011;7116;52.152;5.392;2023-05-10T12:49:27;4.85;;;3.25;;
14080;SDS011;7116;52.152;5.392;2023-05-10T12:52:34;6.10;;;3.67;;
14080;SDS011;7116;52.152;5.392;2023-05-10T12:55:08;3.78;;;2.78;;
14080;SDS011;7116;52.152;5.392;2023-05-10T13:00:40;4.22;;;2.70;;
14080;SDS011;7116;52.152;5.392;2023-05-10T13:03:24;5.82;;;2.90;;
14080;SDS011;7116;52.152;5.392;2023-05-10T13:06:08;4.73;;;2.90;;
14080;SDS011;7116;52.152;5.392;2023-05-10T13:08:58;4.72;;;3.15;;
14080;SDS011;7116;52.152;5.392;2023-05-10T13:11:23;4.45;;;3.10;;
14080;SDS011;7116;52.152;5.392;2023-05-10T13:14:08;4.47;;;3.00;;
14080;SDS011;7116;52.152;5.392;2023-05-10T13:17:01;5.82;;;3.35;;
14080;SDS011;7116;52.152;5.392;2023-05-10T13:19:37;4.73;;;3.33;;
14080;SDS011;7116;52.152;5.392;2023-05-10T13:22:23;5.28;;;3.40;;
14080;SDS011;7116;52.152;5.392;2023-05-10T13:24:58;7.13;;;4.47;;
14080;SDS011;7116;52.152;5.392;2023-05-10T13:27:44;10.55;;;5.40;;
14080;SDS011;7116;52.152;5.392;2023-05-10T13:33:27;10.03;;;6.33;;
14080;SDS011;7116;52.152;5.392;2023-05-10T13:35:53;8.80;;;5.60;;
14080;SDS011;7116;52.152;5.392;2023-05-10T13:38:22;8.90;;;5.25;;
14080;SDS011;7116;52.152;5.392;2023-05-10T13:44:03;9.15;;;5.43;;
14080;SDS011;7116;52.152;5.392;2023-05-10T13:46:33;9.57;;;6.03;;
14080;SDS011;7116;52.152;5.392;2023-05-10T13:49:00;10.77;;;6.07;;
14080;SDS011;7116;52.152;5.392;2023-05-10T13:51:26;10.85;;;6.60;;
14080;SDS011;7116;52.152;5.392;2023-05-10T13:54:19;11.65;;;6.03;;
14080;SDS011;7116;52.152;5.392;2023-05-10T14:00:00;10.70;;;6.50;;
14080;SDS011;7116;52.152;5.392;2023-05-10T14:02:46;9.30;;;6.27;;
14080;SDS011;7116;52.152;5.392;2023-05-10T14:08:01;10.88;;;6.60;;
14080;SDS011;7116;52.152;5.392;2023-05-10T14:10:41;12.10;;;6.60;;
14080;SDS011;7116;52.152;5.392;2023-05-10T14:13:38;11.23;;;6.47;;
14080;SDS011;7116;52.152;5.392;2023-05-10T14:16:09;12.30;;;6.07;;
14080;SDS011;7116;52.152;5.392;2023-05-10T14:18:49;9.63;;;6.10;;
14080;SDS011;7116;52.152;5.392;2023-05-10T14:21:18;12.38;;;7.07;;
14080;SDS011;7116;52.152;5.392;2023-05-10T14:27:12;10.00;;;6.43;;
14080;SDS011;7116;52.152;5.392;2023-05-10T14:35:42;12.07;;;5.90;;
14080;SDS011;7116;52.152;5.392;2023-05-10T14:38:07;8.20;;;5.77;;
14080;SDS011;7116;52.152;5.392;2023-05-10T14:40:40;9.83;;;5.27;;
14080;SDS011;7116;52.152;5.392;2023-05-10T14:43:08;9.82;;;5.90;;
14080;SDS011;7116;52.152;5.392;2023-05-10T14:45:33;10.67;;;5.53;;
14080;SDS011;7116;52.152;5.392;2023-05-10T15:00:07;10.63;;;5.97;;
14080;SDS011;7116;52.152;5.392;2023-05-10T15:05:47;9.70;;;5.75;;
14080;SDS011;7116;52.152;5.392;2023-05-10T15:14:33;11.75;;;6.53;;
14080;SDS011;7116;52.152;5.392;2023-05-10T15:17:05;9.35;;;6.00;;
14080;SDS011;7116;52.152;5.392;2023-05-10T15:19:31;10.73;;;6.78;;
14080;SDS011;7116;52.152;5.392;2023-05-10T15:21:58;13.30;;;7.25;;
14080;SDS011;7116;52.152;5.392;2023-05-10T15:24:31;9.97;;;6.40;;
14080;SDS011;7116;52.152;5.392;2023-05-10T15:27:04;10.70;;;6.83;;
14080;SDS011;7116;52.152;5.392;2023-05-10T15:29:36;9.90;;;5.95;;
14080;SDS011;7116;52.152;5.392;2023-05-10T15:32:09;10.97;;;5.47;;
14080;SDS011;7116;52.152;5.392;2023-05-10T15:34:52;8.93;;;5.78;;
14080;SDS011;7116;52.152;5.392;2023-05-10T15:43:35;11.20;;;5.93;;
14080;SDS011;7116;52.152;5.392;2023-05-10T15:49:26;10.18;;;6.03;;
14080;SDS011;7116;52.152;5.392;2023-05-10T15:52:19;8.85;;;5.65;;
14080;SDS011;7116;52.152;5.392;2023-05-10T15:58:19;7.43;;;4.70;;
14080;SDS011;7116;52.152;5.392;2023-05-10T16:00:49;8.57;;;5.07;;
14080;SDS011;7116;52.152;5.392;2023-05-10T16:03:36;8.63;;;5.78;;
14080;SDS011;7116;52.152;5.392;2023-05-10T16:06:31;9.52;;;6.00;;
14080;SDS011;7116;52.152;5.392;2023-05-10T16:09:19;7.78;;;5.18;;
14080;SDS011;7116;52.152;5.392;2023-05-10T16:11:49;7.97;;;5.30;;
14080;SDS011;7116;52.152;5.392;2023-05-10T16:14:53;12.55;;;5.70;;
14080;SDS011;7116;52.152;5.392;2023-05-10T16:20:30;9.70;;;5.68;;
14080;SDS011;7116;52.152;5.392;2023-05-10T16:23:34;8.98;;;5.40;;
14080;SDS011;7116;52.152;5.392;2023-05-10T16:26:29;7.53;;;5.10;;
14080;SDS011;7116;52.152;5.392;2023-05-10T16:29:29;8.63;;;5.75;;
14080;SDS011;7116;52.152;5.392;2023-05-10T16:32:31;9.43;;;5.70;;
14080;SDS011;7116;52.152;5.392;2023-05-10T16:35:18;8.85;;;6.10;;
14080;SDS011;7116;52.152;5.392;2023-05-10T16:41:08;8.37;;;5.50;;
14080;SDS011;7116;52.152;5.392;2023-05-10T16:44:12;10.15;;;4.93;;
14080;SDS011;7116;52.152;5.392;2023-05-10T16:47:04;8.23;;;5.15;;
14080;SDS011;7116;52.152;5.392;2023-05-10T17:01:58;6.78;;;3.95;;
14080;SDS011;7116;52.152;5.392;2023-05-10T17:07:57;6.10;;;4.10;;
14080;SDS011;7116;52.152;5.392;2023-05-10T17:20:05;5.18;;;3.60;;
14080;SDS011;7116;52.152;5.392;2023-05-10T17:22:53;7.68;;;3.60;;
14080;SDS011;7116;52.152;5.392;2023-05-10T17:25:59;8.07;;;4.20;;
14080;SDS011;7116;52.152;5.392;2023-05-10T17:28:45;4.68;;;3.42;;
14080;SDS011;7116;52.152;5.392;2023-05-10T17:31:37;6.68;;;3.67;;
14080;SDS011;7116;52.152;5.392;2023-05-10T17:34:19;7.22;;;4.35;;
14080;SDS011;7116;52.152;5.392;2023-05-10T17:49:00;7.35;;;4.53;;
14080;SDS011;7116;52.152;5.392;2023-05-10T17:51:30;8.82;;;5.60;;
14080;SDS011;7116;52.152;5.392;2023-05-10T17:54:36;8.27;;;5.03;;
14080;SDS011;7116;52.152;5.392;2023-05-10T17:57:21;8.07;;;5.03;;
14080;SDS011;7116;52.152;5.392;2023-05-10T18:02:53;8.02;;;5.50;;
14080;SDS011;7116;52.152;5.392;2023-05-10T18:05:41;9.50;;;6.25;;
14080;SDS011;7116;52.152;5.392;2023-05-10T18:08:14;9.13;;;5.63;;
14080;SDS011;7116;52.152;5.392;2023-05-10T18:11:11;8.00;;;5.53;;
14080;SDS011;7116;52.152;5.392;2023-05-10T18:13:56;10.23;;;6.38;;
14080;SDS011;7116;52.152;5.392;2023-05-10T18:16:44;8.68;;;6.13;;
14080;SDS011;7116;52.152;5.392;2023-05-10T18:19:17;9.00;;;5.97;;
14080;SDS011;7116;52.152;5.392;2023-05-10T18:30:49;11.68;;;6.25;;
14080;SDS011;7116;52.152;5.392;2023-05-10T18:33:15;8.45;;;5.78;;
14080;SDS011;7116;52.152;5.392;2023-05-10T18:35:42;9.10;;;6.00;;
14080;SDS011;7116;52.152;5.392;2023-05-10T18:38:08;11.18;;;6.70;;
14080;SDS011;7116;52.152;5.392;2023-05-10T18:40:34;8.27;;;6.03;;
14080;SDS011;7116;52.152;5.392;2023-05-10T18:43:10;9.35;;;6.25;;
14080;SDS011;7116;52.152;5.392;2023-05-10T18:55:05;12.98;;;6.35;;
14080;SDS011;7116;52.152;5.392;2023-05-10T18:58:11;11.80;;;6.97;;
14080;SDS011;7116;52.152;5.392;2023-05-10T19:16:19;12.40;;;6.97;;
14080;SDS011;7116;52.152;5.392;2023-05-10T19:19:25;13.35;;;7.50;;
14080;SDS011;7116;52.152;5.392;2023-05-10T19:25:43;13.07;;;7.47;;
14080;SDS011;7116;52.152;5.392;2023-05-10T19:34:41;11.77;;;7.22;;
14080;SDS011;7116;52.152;5.392;2023-05-10T19:40:30;16.80;;;7.97;;
14080;SDS011;7116;52.152;5.392;2023-05-10T19:49:19;14.05;;;7.43;;
14080;SDS011;7116;52.152;5.392;2023-05-10T19:55:05;14.48;;;8.60;;
14080;SDS011;7116;52.152;5.392;2023-05-10T20:01:10;11.53;;;7.27;;
14080;SDS011;7116;52.152;5.392;2023-05-10T20:12:57;13.70;;;7.53;;
14080;SDS011;7116;52.152;5.392;2023-05-10T20:33:58;16.25;;;7.93;;
14080;SDS011;7116;52.152;5.392;2023-05-10T20:48:48;12.93;;;7.35;;
14080;SDS011;7116;52.152;5.392;2023-05-10T20:51:28;14.43;;;8.70;;
14080;SDS011;7116;52.152;5.392;2023-05-10T20:54:18;12.07;;;7.53;;
14080;SDS011;7116;52.152;5.392;2023-05-10T20:56:54;14.57;;;8.35;;
14080;SDS011;7116;52.152;5.392;2023-05-10T20:59:59;14.47;;;7.97;;
14080;SDS011;7116;52.152;5.392;2023-05-10T21:02:54;12.80;;;7.18;;
14080;SDS011;7116;52.152;5.392;2023-05-10T21:08:28;15.88;;;7.50;;
14080;SDS011;7116;52.152;5.392;2023-05-10T21:14:09;12.63;;;7.63;;
14080;SDS011;7116;52.152;5.392;2023-05-10T21:19:35;13.32;;;7.05;;
14080;SDS011;7116;52.152;5.392;2023-05-10T21:25:20;13.63;;;7.63;;
14080;SDS011;7116;52.152;5.392;2023-05-10T21:28:08;11.93;;;7.20;;
14080;SDS011;7116;52.152;5.392;2023-05-10T21:30:33;12.50;;;7.50;;
14080;SDS011;7116;52.152;5.392;2023-05-10T21:32:58;15.93;;;8.17;;
14080;SDS011;7116;52.152;5.392;2023-05-10T21:35:27;13.00;;;7.80;;
14080;SDS011;7116;52.152;5.392;2023-05-10T21:46:53;14.25;;;8.88;;
14080;SDS011;7116;52.152;5.392;2023-05-10T21:58:41;16.33;;;8.73;;
14080;SDS011;7116;52.152;5.392;2023-05-10T22:01:21;14.23;;;8.27;;
14080;SDS011;7116;52.152;5.392;2023-05-10T22:04:07;13.63;;;8.50;;
14080;SDS011;7116;52.152;5.392;2023-05-10T22:09:53;12.73;;;7.88;;
14080;SDS011;7116;52.152;5.392;2023-05-10T22:18:18;16.23;;;8.30;;
14080;SDS011;7116;52.152;5.392;2023-05-10T22:21:11;13.70;;;8.18;;
14080;SDS011;7116;52.152;5.392;2023-05-10T22:23:49;13.90;;;8.27;;
14080;SDS011;7116;52.152;5.392;2023-05-10T22:26:43;12.88;;;8.50;;
14080;SDS011;7116;52.152;5.392;2023-05-10T22:29:09;12.93;;;7.78;;
14080;SDS011;7116;52.152;5.392;2023-05-10T22:34:50;13.77;;;8.45;;
14080;SDS011;7116;52.152;5.392;2023-05-10T22:37:49;12.95;;;7.30;;
14080;SDS011;7116;52.152;5.392;2023-05-10T22:40:34;11.32;;;7.90;;
14080;SDS011;7116;52.152;5.392;2023-05-10T22:46:15;13.15;;;8.10;;
14080;SDS011;7116;52.152;5.392;2023-05-10T22:55:19;12.57;;;7.65;;
14080;SDS011;7116;52.152;5.392;2023-05-10T23:01:15;13.20;;;8.13;;
14080;SDS011;7116;52.152;5.392;2023-05-10T23:03:56;17.40;;;8.45;;
14080;SDS011;7116;52.152;5.392;2023-05-10T23:06:58;14.95;;;9.23;;
14080;SDS011;7116;52.152;5.392;2023-05-10T23:18:28;16.75;;;9.45;;
14080;SDS011;7116;52.152;5.392;2023-05-10T23:20:59;13.38;;;8.52;;
14080;SDS011;7116;52.152;5.392;2023-05-10T23:23:27;15.20;;;9.20;;
14080;SDS011;7116;52.152;5.392;2023-05-10T23:25:57;15.47;;;8.93;;
14080;SDS011;7116;52.152;5.392;2023-05-10T23:28:35;14.95;;;9.57;;
14080;SDS011;7116;52.152;5.392;2023-05-10T23:31:15;15.93;;;9.98;;
14080;SDS011;7116;52.152;5.392;2023-05-10T23:34:08;18.75;;;9.95;;
14080;SDS011;7116;52.152;5.392;2023-05-10T23:49:21;14.85;;;9.35;;
14080;SDS011;7116;52.152;5.392;2023-05-10T23:54:58;18.70;;;10.93;;